Country
Station

 

Weather  for  Corvallis Municipal Automatic Weather Observing/Reporting System  -  United States    United States

  
8 °C (46 °F)
    
 
 

Current METAR for Corvallis Municipal Automatic Weather Observing/Reporting System is :

KCVO 121456Z AUTO 18005KT 10SM -RA SCT027 BKN041 OVC065 08/08 A3003 RMK AO2 RAB37 SLP170 P0001 60001 T00780078 51000

 

This is a report for Corvallis Municipal Automatic Weather Observing/Reporting System - United States.
 
The report was made a moment ago, at 14:56 UTC .
The wind was blowing at a speed of 2.6 meters per second (5.8 miles per hour) from south (180°).
 
The temperature was 8 °C (46 °F), with a dew-point at 8 °C (46 °F).
The atmospheric pressure was 1017 hPa (30.03 inHg).
The relative humidity was 100.0%.
 
There were scattered clouds at a height of 823 meters (2700 feet) and broken clouds at a height of 1250 meters (4100 feet). The sky was overcast from a height of 1981 meter (6500 feet)
 
The overall visibility was 16.1 kilometers (10.0 miles).
 
Currently light rain.

 
 
 
 

Country :   A   B   C   D   E   F   G   H   I   J   K   L   M   N   O   P   Q   R   S   T   U   V   W   Y   Z

 

Site Info  |  Disclaimer  |  Credits  |  Privacy
Contact us  |  Add to favorites
© 2013-2019 METARs - All rights reserved